Grand Isle, LA

10:03 PM CST on March 04, 2015 (GMT -0600)
Grand Isle | Change Station
CLOSE
Current Station
Airport
Location: Grand Isle,
Elevation: 7 ft
Nearby Weather Stations
Active Advisory: Wind Advisory, Special Statement Active Notice: Record Report

Elev 7 ft 29.25 °N, 89.97 °W | Updated 2 days ago

Mostly Cloudy
Mostly Cloudy
66 °F
Feels Like 66 °F
N
7
Wind Variable Wind from SSW
Gusts mph

Today
High -- | Low -- °F
--% Chance of Precip.
Yesterday
High -- | Low -- °F
Precip. -- in
6:22 AM 6:01 PM
Full, 100% visible
Pressure 30.26 in
Visibility 6.0 miles
Clouds Scattered Clouds 8000 ft
Dew Point 62 °F
Humidity 87%
Rainfall 0.13 in
Snow Depth Not available.
UV 7 out of 12
Pollen 10.40 out of 12
Air Quality Not available.
Flu Activity Regional
SPECI KAXO 021700Z 17010KT 6 HZ SCT080 21/20 A3026

More Conditions Fewer Conditions

Pressure 30.26 in
Visibility 6.0 miles
Clouds Scattered Clouds 8000 ft
Dew Point 62 °F
Humidity 87%
Rainfall 0.13 in
Snow Depth Not available.
UV 7 out of 12
Pollen 10.40 out of 12
Air Quality Not available.
Flu Activity Regional
SPECI KAXO 021700Z 17010KT 6 HZ SCT080 21/20 A3026

More Conditions Fewer Conditions

10-Day Weather Forecast

Almanac

Astronomy

Mar. 04, 2015 Rise Set
Actual Time 6:22 AM CST 6:01 PM CST
Civil Twilight 5:58 AM CST 6:25 PM CST
Nautical Twilight 5:31 AM CST 6:52 PM CST
Astronomical Twilight 5:03 AM CST 7:20 PM CST
Moon 5:20 PM CST (3/4) 5:33 AM CST (3/4)
Length of Visible Light 12h 26m
Length of Day
11h 39m
Tomorrow will be 1m 44s longer.
Full, 100% of the Moon is Illuminated
Today
Full
Mar 5
Full
Mar 13
Last Quarter
Mar 20
New
Mar 27
First Quarter

Today's Extremes

State Highs State Lows

Community

WunderPhotos

Upload Photos

1,802,667 photos uploaded!

Nearby

Snow Depth

Station Depth Elevation
No new snow has been reported.

Earthquake Activity

City Distance Mag. Time & Date
No recent earthquake activity has been reported nearby.
Minimum magnitude displayed is 2.5.

Coastal Water Temperatures

Place Temperature
Pilot's Station East, SW Pass, LA 46.0 °F
Grand Isle, LA 66.0 °F
Bayou Gauche, LA 70.0 °F
Shell Beach, LA 63.0 °F

Nearby Weather Stations